createdAt,value
2024-02-13T00:00:42.669Z,7.37
2024-02-13T00:04:39.429Z,7.30
2024-02-13T00:08:33.304Z,7.25
2024-02-13T00:12:29.684Z,7.23
2024-02-13T00:16:17.399Z,7.21
2024-02-13T00:19:47.642Z,7.19
2024-02-13T00:23:35.375Z,7.21
2024-02-13T00:27:23.210Z,7.22
2024-02-13T00:31:11.118Z,7.27
2024-02-13T00:34:58.967Z,7.25
2024-02-13T00:38:39.477Z,7.19
2024-02-13T00:42:27.296Z,7.14
2024-02-13T00:46:15.130Z,7.08
2024-02-13T00:50:03.127Z,7.03
2024-02-13T00:53:50.846Z,7.02
2024-02-13T00:57:38.741Z,7.03
2024-02-13T01:01:26.545Z,7.05
2024-02-13T01:05:14.282Z,7.08
2024-02-13T01:09:02.255Z,7.09
2024-02-13T01:12:49.932Z,7.09
2024-02-13T01:16:37.660Z,7.06
2024-02-13T01:20:25.423Z,7.05
2024-02-13T01:24:13.357Z,7.06
2024-02-13T01:28:01.043Z,7.06
2024-02-13T01:31:49.577Z,7.10
2024-02-13T01:35:38.874Z,7.09
2024-02-13T01:39:26.608Z,7.03
2024-02-13T01:43:14.387Z,6.96
2024-02-13T01:47:02.202Z,6.84
2024-02-13T01:50:50.095Z,6.81
2024-02-13T01:54:37.856Z,6.84
2024-02-13T01:58:25.686Z,6.86
2024-02-13T02:02:12.628Z,6.89
2024-02-13T02:06:00.548Z,6.89
2024-02-13T02:09:48.376Z,6.87
2024-02-13T02:13:36.070Z,6.85
2024-02-13T02:17:24.121Z,6.82
2024-02-13T02:21:12.194Z,6.85
2024-02-13T02:25:00.144Z,6.82
2024-02-13T02:28:46.675Z,6.86
2024-02-13T02:32:34.666Z,6.84
2024-02-13T02:36:22.962Z,6.79
2024-02-13T02:40:10.625Z,6.74
2024-02-13T02:43:57.982Z,6.73
2024-02-13T02:47:45.854Z,6.73
2024-02-13T02:51:33.757Z,6.75
2024-02-13T02:55:21.462Z,6.75
2024-02-13T02:59:09.291Z,6.72
2024-02-13T03:02:57.238Z,6.68
2024-02-13T03:06:45.186Z,6.64
2024-02-13T03:10:32.953Z,6.61
2024-02-13T03:14:20.840Z,6.60
2024-02-13T03:18:09.052Z,6.58
2024-02-13T03:21:39.581Z,6.56
2024-02-13T03:25:26.221Z,6.49
2024-02-13T03:29:14.075Z,6.40
2024-02-13T03:33:02.240Z,6.33
2024-02-13T03:36:50.540Z,6.33
2024-02-13T03:40:30.942Z,6.34
2024-02-13T03:44:18.581Z,6.35
2024-02-13T03:48:06.501Z,6.37
2024-02-13T03:51:54.228Z,6.38
2024-02-13T03:55:41.868Z,6.38
2024-02-13T03:59:29.712Z,6.40
2024-02-13T04:03:17.477Z,6.35
2024-02-13T04:07:05.088Z,6.34
2024-02-13T04:10:52.687Z,6.29
2024-02-13T04:14:40.593Z,6.29
2024-02-13T04:18:28.573Z,6.30
2024-02-13T04:22:16.245Z,6.28
2024-02-13T04:26:04.085Z,6.25
2024-02-13T04:29:51.845Z,6.24
2024-02-13T04:33:39.705Z,6.27
2024-02-13T04:37:27.430Z,6.22
2024-02-13T04:41:15.255Z,6.21
2024-02-13T04:45:02.852Z,6.24
2024-02-13T04:48:50.610Z,6.29
2024-02-13T04:52:38.543Z,6.27
2024-02-13T04:56:26.303Z,6.22
2024-02-13T05:00:14.184Z,6.13
2024-02-13T05:04:00.593Z,6.05
2024-02-13T05:07:48.379Z,6.03
2024-02-13T05:11:36.199Z,5.97
2024-02-13T05:15:14.120Z,5.91
2024-02-13T05:18:13.908Z,5.91
2024-02-13T05:21:52.888Z,5.92
2024-02-13T05:25:40.969Z,5.89
2024-02-13T05:28:52.858Z,5.88
2024-02-13T05:32:43.130Z,5.90
2024-02-13T05:36:31.148Z,5.95
2024-02-13T05:40:19.190Z,5.99
2024-02-13T05:44:07.206Z,6.00
2024-02-13T05:47:57.117Z,5.94
2024-02-13T05:51:19.146Z,5.97
2024-02-13T05:53:52.881Z,6.00
2024-02-13T05:57:38.374Z,6.00
2024-02-13T06:01:30.146Z,6.02
2024-02-13T06:05:12.313Z,6.00
2024-02-13T06:10:04.046Z,6.07
2024-02-13T06:13:34.627Z,6.12
2024-02-13T06:17:05.543Z,6.16
2024-02-13T06:20:48.533Z,6.18
2024-02-13T06:29:16.110Z,6.23
2024-02-13T06:33:10.713Z,6.25
2024-02-13T06:36:58.754Z,6.24
2024-02-13T06:40:48.120Z,6.26
2024-02-13T06:44:26.396Z,6.31
2024-02-13T06:47:48.619Z,6.41
2024-02-13T06:51:21.420Z,6.55
2024-02-13T06:55:03.531Z,6.73
2024-02-13T06:59:14.310Z,6.92
2024-02-13T07:16:26.567Z,7.37
2024-02-13T07:25:57.609Z,7.36
2024-02-13T07:29:59.056Z,7.29
2024-02-13T07:33:54.454Z,7.19
2024-02-13T07:38:23.188Z,7.14
2024-02-13T07:41:58.329Z,7.11
2024-02-13T07:45:55.094Z,7.10
2024-02-13T07:49:52.339Z,7.10
2024-02-13T07:53:55.273Z,7.10
2024-02-13T07:57:46.544Z,7.09
2024-02-13T08:01:34.537Z,7.06
2024-02-13T08:05:23.443Z,7.11
2024-02-13T08:27:59.929Z,7.06
2024-02-13T08:32:33.390Z,7.05
2024-02-13T08:51:36.440Z,7.38
2024-02-13T08:56:21.972Z,7.54
2024-02-13T09:01:23.683Z,7.74
2024-02-13T09:05:44.789Z,7.77
2024-02-13T09:19:35.659Z,7.78
2024-02-13T09:23:33.268Z,7.71
2024-02-13T09:27:18.221Z,7.70
2024-02-13T09:31:58.875Z,7.72
2024-02-13T09:34:57.199Z,7.69
2024-02-13T09:38:39.320Z,7.66
2024-02-13T09:42:21.085Z,7.56
2024-02-13T09:46:31.229Z,7.49
2024-02-13T09:50:28.285Z,7.76
2024-02-13T09:54:31.298Z,9.61
2024-02-13T09:58:03.441Z,9.70
2024-02-13T10:01:54.344Z,9.42
2024-02-13T10:06:40.044Z,9.11
2024-02-13T10:10:25.051Z,8.83
2024-02-13T10:19:39.363Z,8.37
2024-02-13T10:23:35.421Z,8.26
2024-02-13T10:27:27.744Z,8.23
2024-02-13T10:31:30.396Z,8.19
2024-02-13T10:35:59.140Z,8.17
2024-02-13T10:40:23.031Z,8.14
2024-02-13T10:43:50.416Z,8.17
2024-02-13T10:47:26.865Z,8.14
2024-02-13T10:50:52.216Z,8.11
2024-02-13T10:54:43.866Z,8.08
2024-02-13T10:58:24.585Z,8.11
2024-02-13T11:02:30.577Z,8.09
2024-02-13T11:06:18.258Z,8.10
2024-02-13T11:10:13.766Z,7.94
2024-02-13T11:14:44.787Z,7.81
2024-02-13T11:19:34.413Z,7.83
2024-02-13T11:24:44.305Z,7.85
2024-02-13T11:29:07.112Z,7.83
2024-02-13T11:33:17.889Z,7.82
2024-02-13T11:42:10.221Z,7.78
2024-02-13T11:50:47.352Z,7.74
2024-02-13T11:54:36.951Z,7.77
2024-02-13T11:58:22.352Z,7.84
2024-02-13T12:01:45.142Z,7.91
2024-02-13T12:05:33.811Z,7.94
2024-02-13T12:09:23.137Z,7.99
2024-02-13T12:13:12.996Z,8.03
2024-02-13T12:16:44.504Z,8.03
2024-02-13T12:20:27.356Z,8.00
2024-02-13T12:24:16.535Z,7.95
2024-02-13T12:28:05.711Z,7.95
2024-02-13T12:31:42.266Z,7.99
2024-02-13T12:35:31.907Z,8.03
2024-02-13T12:39:23.806Z,8.04
2024-02-13T12:43:12.859Z,8.02
2024-02-13T12:47:02.345Z,7.96
2024-02-13T12:50:52.331Z,7.86
2024-02-13T12:54:42.212Z,7.79
2024-02-13T12:58:16.848Z,7.78
2024-02-13T13:02:08.776Z,7.83
2024-02-13T13:05:58.754Z,7.86
2024-02-13T13:09:48.129Z,7.85
2024-02-13T13:13:37.237Z,7.85
2024-02-13T13:17:06.124Z,7.81
2024-02-13T13:20:56.308Z,7.77
2024-02-13T13:24:45.603Z,7.72
2024-02-13T13:28:34.653Z,7.72
2024-02-13T13:32:23.830Z,7.78
2024-02-13T13:36:13.034Z,7.83
2024-02-13T13:40:02.604Z,7.85
2024-02-13T13:43:52.020Z,7.87
2024-02-13T13:47:41.423Z,7.84
2024-02-13T13:51:30.568Z,7.82
2024-02-13T13:55:19.744Z,7.77
2024-02-13T13:59:09.010Z,7.66
2024-02-13T14:02:58.284Z,7.61
2024-02-13T14:06:47.561Z,7.58
2024-02-13T14:09:50.727Z,7.60
2024-02-13T14:13:32.232Z,7.59
2024-02-13T14:17:21.504Z,7.56
2024-02-13T14:21:10.769Z,7.47
2024-02-13T14:24:59.931Z,7.41
2024-02-13T14:28:49.055Z,7.46
2024-02-13T14:32:38.310Z,7.45
2024-02-13T14:36:27.603Z,7.44
2024-02-13T14:40:16.724Z,7.40
2024-02-13T14:43:45.741Z,7.37
2024-02-13T14:47:35.106Z,7.34
2024-02-13T14:51:07.395Z,7.33
2024-02-13T14:54:56.506Z,7.40
2024-02-13T14:58:45.401Z,7.46
2024-02-13T15:02:34.584Z,7.51
2024-02-13T15:06:24.729Z,7.53
2024-02-13T15:10:13.938Z,7.50
2024-02-13T15:14:03.374Z,7.43
2024-02-13T15:17:55.278Z,7.41
2024-02-13T15:21:44.468Z,7.39
2024-02-13T15:25:33.614Z,7.27
2024-02-13T15:29:22.908Z,7.26
2024-02-13T15:32:57.256Z,7.26
2024-02-13T15:36:52.628Z,7.23
2024-02-13T15:40:39.842Z,7.22
2024-02-13T15:44:27.443Z,7.25
2024-02-13T15:48:16.669Z,7.25
2024-02-13T15:52:05.983Z,7.29
2024-02-13T15:55:55.229Z,7.29
2024-02-13T15:59:44.411Z,7.27
2024-02-13T16:03:33.936Z,7.24
2024-02-13T16:07:23.166Z,7.23
2024-02-13T16:11:15.390Z,7.27
2024-02-13T16:15:04.533Z,7.27
2024-02-13T16:18:53.863Z,7.23
2024-02-13T16:22:43.263Z,7.19
2024-02-13T16:26:32.618Z,7.10
2024-02-13T16:30:21.795Z,7.05
2024-02-13T16:34:12.885Z,6.99
2024-02-13T16:38:01.980Z,7.01
2024-02-13T16:41:56.936Z,7.04
2024-02-13T16:45:46.184Z,6.97
2024-02-13T16:49:35.471Z,6.93
2024-02-13T16:53:25.830Z,6.90
2024-02-13T16:57:15.057Z,6.88
2024-02-13T17:01:04.318Z,6.93
2024-02-13T17:04:53.370Z,6.97
2024-02-13T17:08:42.544Z,7.01
2024-02-13T17:12:31.736Z,7.02
2024-02-13T17:16:20.822Z,7.01
2024-02-13T17:20:10.241Z,6.99
2024-02-13T17:23:59.372Z,6.98
2024-02-13T17:27:48.626Z,7.02
2024-02-13T17:31:40.787Z,7.04
2024-02-13T17:35:29.924Z,7.05
2024-02-13T17:39:19.402Z,7.03
2024-02-13T17:43:08.678Z,6.99
2024-02-13T17:46:57.803Z,6.94
2024-02-13T17:50:47.131Z,6.89
2024-02-13T17:54:36.293Z,6.87
2024-02-13T17:58:25.428Z,6.86
2024-02-13T18:02:14.510Z,6.84
2024-02-13T18:05:52.283Z,6.81
2024-02-13T18:09:41.556Z,6.77
2024-02-13T18:13:30.427Z,6.74
2024-02-13T18:17:19.461Z,6.75
2024-02-13T18:21:09.119Z,6.78
2024-02-13T18:24:58.429Z,6.78
2024-02-13T18:28:47.570Z,6.75
2024-02-13T18:32:36.721Z,6.73
2024-02-13T18:36:25.956Z,6.68
2024-02-13T18:40:15.393Z,6.59
2024-02-13T18:44:04.842Z,6.53
2024-02-13T18:47:54.123Z,6.52
2024-02-13T18:51:43.740Z,6.48
2024-02-13T18:55:32.780Z,6.39
2024-02-13T18:59:15.120Z,6.31
2024-02-13T19:03:04.355Z,6.30
2024-02-13T19:06:53.683Z,6.33
2024-02-13T19:10:45.826Z,6.27
2024-02-13T19:14:34.938Z,6.21
2024-02-13T19:18:26.550Z,6.09
2024-02-13T19:22:15.729Z,6.02
2024-02-13T19:26:04.993Z,5.99
2024-02-13T19:29:54.318Z,6.03
2024-02-13T19:33:44.168Z,6.07
2024-02-13T19:37:33.437Z,6.03
2024-02-13T19:41:22.527Z,5.98
2024-02-13T19:44:51.724Z,5.91
2024-02-13T19:48:41.097Z,5.92
2024-02-13T19:52:30.335Z,5.86
2024-02-13T19:56:19.639Z,5.81
2024-02-13T20:00:08.832Z,5.79
2024-02-13T20:03:57.964Z,5.69
2024-02-13T20:07:47.394Z,5.65
2024-02-13T20:11:36.651Z,5.63
2024-02-13T20:15:25.721Z,5.64
2024-02-13T20:19:05.021Z,5.57
2024-02-13T20:22:53.317Z,5.48
2024-02-13T20:26:42.559Z,5.39
2024-02-13T20:30:31.827Z,5.30
2024-02-13T20:34:21.129Z,5.28
2024-02-13T20:38:10.484Z,5.27
2024-02-13T20:42:00.717Z,5.18
2024-02-13T20:45:49.982Z,5.12
2024-02-13T20:49:39.134Z,5.07
2024-02-13T20:53:28.241Z,5.01
2024-02-13T20:57:17.413Z,5.00
2024-02-13T21:01:06.738Z,4.95
2024-02-13T21:04:48.861Z,4.92
2024-02-13T21:08:38.063Z,4.90
2024-02-13T21:12:27.205Z,4.85
2024-02-13T21:16:16.245Z,4.77
2024-02-13T21:20:05.696Z,4.71
2024-02-13T21:24:13.606Z,4.67
2024-02-13T21:28:03.028Z,4.61
2024-02-13T21:31:52.231Z,4.51
2024-02-13T21:35:41.420Z,4.41
2024-02-13T21:39:30.449Z,4.36
2024-02-13T21:43:22.045Z,4.38
2024-02-13T21:47:11.504Z,4.38
2024-02-13T21:51:00.871Z,4.37
2024-02-13T21:54:50.005Z,4.39
2024-02-13T21:58:39.186Z,4.38
2024-02-13T22:02:28.242Z,4.35
2024-02-13T22:06:17.512Z,4.35
2024-02-13T22:10:06.825Z,4.38
2024-02-13T22:13:56.200Z,4.32
2024-02-13T22:17:45.917Z,4.28
2024-02-13T22:21:35.425Z,4.30
2024-02-13T22:25:24.485Z,4.28
2024-02-13T22:29:13.691Z,4.35
2024-02-13T22:33:03.583Z,4.36
2024-02-13T22:36:53.446Z,4.33
2024-02-13T22:40:46.547Z,4.31
2024-02-13T22:44:36.139Z,4.26
2024-02-13T22:48:25.825Z,4.23
2024-02-13T22:52:15.045Z,4.22
2024-02-13T22:56:04.048Z,4.19
2024-02-13T22:59:53.577Z,4.15
2024-02-13T23:03:44.255Z,4.15
2024-02-13T23:07:33.446Z,4.13
2024-02-13T23:11:22.782Z,4.09
2024-02-13T23:15:12.785Z,4.09
2024-02-13T23:19:02.174Z,4.14
2024-02-13T23:22:51.526Z,4.22
2024-02-13T23:26:40.684Z,4.26
2024-02-13T23:30:29.790Z,4.33
2024-02-13T23:34:19.461Z,4.37
2024-02-13T23:38:08.785Z,4.35
2024-02-13T23:41:58.235Z,4.36
2024-02-13T23:45:50.555Z,4.32
2024-02-13T23:49:39.853Z,4.36
2024-02-13T23:53:50.060Z,4.44
2024-02-13T23:57:39.710Z,4.48
